This is the latest recevied weather packets stored in our database for station/object KC4JIR. If no packets are shown the sender has not sent any weather packets the latest 10 day(s).
| Time | Temp. | Humidity | Pressure | Rain* | Wind** | Luminosity | Snow |
|---|---|---|---|---|---|---|---|
| 1777532906 | 22.78° C | 86% | 1007.1 hPa | 0 mm | - | 0 W/m² | - |
| 1777532603 | 22.78° C | 85% | 1007 hPa | 0 mm | - | 0 W/m² | - |
| 1777531995 | 22.22° C | 88% | 1007 hPa | 0 mm | - | 0 W/m² | - |
| 1777531692 | 22.22° C | 88% | 1007 hPa | 0 mm | - | 0 W/m² | - |
| 1777531389 | 22.22° C | 88% | 1007.1 hPa | 0 mm | - | 0 W/m² | - |
| 1777510762 | 23.33° C | 82% | 1008.3 hPa | 0 mm | - | 0 W/m² | - |
| 1777510460 | 23.33° C | 82% | 1007.9 hPa | 0 mm | - | 0 W/m² | - |
| 1777510155 | 23.33° C | 82% | 1008.1 hPa | 0 mm | - | 0 W/m² | - |
| 1777509853 | 23.89° C | 82% | 1008 hPa | 0 mm | - | 0 W/m² | - |
| 1777509547 | 23.89° C | 82% | 1008 hPa | 0 mm | - | 0 W/m² | - |
| 1777509245 | 24.44° C | 79% | 1008 hPa | 0 mm | - | 0 W/m² | - |
| 1777508942 | 24.44° C | 79% | 1007.8 hPa | 0 mm | - | 0 W/m² | - |
| 1777508638 | 25° C | 78% | 1007.8 hPa | 0 mm | - | 0 W/m² | - |
| 1777508336 | 25° C | 76% | 1007.8 hPa | 0 mm | - | 0 W/m² | - |
| 1777508033 | 25° C | 76% | 1007.7 hPa | 0 mm | - | 0 W/m² | - |
| 1777507729 | 25° C | 75% | 1007.7 hPa | 0 mm | - | 0 W/m² | - |
| 1777507426 | 25° C | 75% | 1007.7 hPa | 0 mm | - | 0 W/m² | - |
| 1777505910 | 27.22° C | 64% | 1007.6 hPa | 0 mm | - | 16 W/m² | - |
| 1777505606 | 27.22° C | 64% | 1007.7 hPa | 0 mm | - | 16 W/m² | - |
| 1777505303 | 27.22° C | 64% | 1008 hPa | 0 mm | - | 16 W/m² | - |
| 1777504999 | 27.78° C | 64% | 1008.1 hPa | 0 mm | - | 20 W/m² | - |
| 1777504696 | 27.78° C | 64% | 1008.3 hPa | 0 mm | - | 32 W/m² | - |
| 1777504394 | 27.78° C | 64% | 1008.1 hPa | 0 mm | - | 32 W/m² | - |
| 1777504089 | 27.78° C | 64% | 1008.3 hPa | 0 mm | - | 26 W/m² | - |
| 1777503784 | 27.78° C | 64% | 1007.9 hPa | 0 mm | - | 26 W/m² | - |
* Rain latest hour (hover to see other rain measurements)
** Current wind speed in m/s (hover to see current wind gust speed)